Terminal Aerodrome Forecast
Issued by NWS

Home | Current Version | Previous Version | Text Only | Print | Product List | Glossary On
Versions: 1 2 3 4 5 6 7 8 9 10 11 12 13
000
FTUS44 KTSA 192300
TAFBVO
TAF
KBVO 192330Z 2000/2024 20007KT P6SM SKC
     FM200200 19002KT P6SM SCT150
     FM201500 20012KT P6SM BKN100=

USA.gov is the U.S. government's official web portal to all federal, state and local government web resources and services.